createdAt,value
2023-01-29T00:02:26.760Z,-2.36
2023-01-29T00:06:10.570Z,-2.33
2023-01-29T00:09:34.765Z,-2.34
2023-01-29T00:13:12.321Z,-2.38
2023-01-29T00:16:50.133Z,-2.41
2023-01-29T00:20:30.676Z,-2.46
2023-01-29T00:24:05.636Z,-2.53
2023-01-29T00:27:44.697Z,-2.55
2023-01-29T00:31:23.818Z,-2.65
2023-01-29T00:34:58.241Z,-2.69
2023-01-29T00:38:36.769Z,-2.77
2023-01-29T00:42:32.641Z,-2.82
2023-01-29T00:46:16.398Z,-2.87
2023-01-29T00:49:41.429Z,-2.83
2023-01-29T00:53:20.788Z,-2.77
2023-01-29T00:56:56.867Z,-2.73
2023-01-29T01:00:34.644Z,-2.70
2023-01-29T01:04:12.887Z,-2.72
2023-01-29T01:07:58.035Z,-2.81
2023-01-29T01:11:46.469Z,-2.84
2023-01-29T01:15:11.521Z,-2.82
2023-01-29T01:19:06.834Z,-2.79
2023-01-29T01:22:50.936Z,-2.79
2023-01-29T01:26:15.600Z,-2.78
2023-01-29T01:29:52.430Z,-2.81
2023-01-29T01:33:30.016Z,-2.80
2023-01-29T01:37:07.611Z,-2.76
2023-01-29T01:41:04.382Z,-2.77
2023-01-29T01:45:04.318Z,-2.79
2023-01-29T01:48:28.359Z,-2.79
2023-01-29T01:52:06.609Z,-2.81
2023-01-29T01:55:50.619Z,-2.85
2023-01-29T01:59:24.026Z,-2.87
2023-01-29T02:03:19.729Z,-2.86
2023-01-29T02:07:06.192Z,-2.84
2023-01-29T02:10:42.203Z,-2.86
2023-01-29T02:14:09.181Z,-2.87
2023-01-29T02:17:48.471Z,-2.93
2023-01-29T02:21:41.880Z,-3.02
2023-01-29T02:25:48.226Z,-3.05
2023-01-29T02:29:23.096Z,-3.06
2023-01-29T02:33:28.336Z,-3.15
2023-01-29T02:37:09.680Z,-3.19
2023-01-29T02:41:11.996Z,-3.20
2023-01-29T02:45:00.521Z,-3.25
2023-01-29T02:48:59.672Z,-3.29
2023-01-29T02:53:22.269Z,-3.30
2023-01-29T02:57:16.298Z,-3.35
2023-01-29T03:00:47.629Z,-3.35
2023-01-29T03:04:27.841Z,-3.32
2023-01-29T03:08:36.102Z,-3.35
2023-01-29T03:12:19.942Z,-3.44
2023-01-29T03:16:01.644Z,-3.48
2023-01-29T03:20:10.018Z,-3.44
2023-01-29T03:24:14.862Z,-3.43
2023-01-29T03:28:21.340Z,-3.51
2023-01-29T03:32:06.651Z,-3.54
2023-01-29T03:35:37.481Z,-3.54
2023-01-29T03:39:11.539Z,-3.56
2023-01-29T03:42:48.121Z,-3.57
2023-01-29T03:46:48.850Z,-3.60
2023-01-29T03:50:29.961Z,-3.56
2023-01-29T03:54:14.300Z,-3.55
2023-01-29T03:58:06.320Z,-3.55
2023-01-29T04:02:09.636Z,-3.51
2023-01-29T04:05:44.075Z,-3.50
2023-01-29T04:09:23.397Z,-3.52
2023-01-29T04:13:04.418Z,-3.55
2023-01-29T04:16:55.177Z,-3.49
2023-01-29T04:20:41.189Z,-3.39
2023-01-29T04:24:19.500Z,-3.30
2023-01-29T04:28:25.431Z,-3.23
2023-01-29T04:32:00.198Z,-3.22
2023-01-29T04:35:36.221Z,-3.24
2023-01-29T04:39:31.901Z,-3.25
2023-01-29T04:43:25.529Z,-3.28
2023-01-29T04:47:10.215Z,-3.30
2023-01-29T04:51:00.556Z,-3.31
2023-01-29T04:54:34.061Z,-3.34
2023-01-29T04:58:16.448Z,-3.37
2023-01-29T05:02:01.946Z,-3.37
2023-01-29T05:05:48.349Z,-3.38
2023-01-29T05:09:18.616Z,-3.39
2023-01-29T05:13:14.647Z,-3.39
2023-01-29T05:17:02.853Z,-3.41
2023-01-29T05:20:28.018Z,-3.42
2023-01-29T05:24:25.634Z,-3.46
2023-01-29T05:28:06.346Z,-3.48
2023-01-29T05:31:31.507Z,-3.45
2023-01-29T05:35:28.986Z,-3.37
2023-01-29T05:38:53.402Z,-3.27
2023-01-29T05:42:50.285Z,-3.20
2023-01-29T05:46:14.450Z,-3.18
2023-01-29T05:50:12.180Z,-3.17
2023-01-29T05:53:36.370Z,-3.18
2023-01-29T05:57:36.829Z,-3.23
2023-01-29T06:01:17.121Z,-3.26
2023-01-29T06:04:42.832Z,-3.32
2023-01-29T06:08:19.522Z,-3.35
2023-01-29T06:11:57.319Z,-3.37
2023-01-29T06:15:53.965Z,-3.42
2023-01-29T06:19:18.466Z,-3.44
2023-01-29T06:23:18.061Z,-3.39
2023-01-29T06:27:02.129Z,-3.32
2023-01-29T06:30:28.327Z,-3.27
2023-01-29T06:34:23.214Z,-3.28
2023-01-29T06:38:06.565Z,-3.31
2023-01-29T06:41:51.998Z,-3.31
2023-01-29T06:45:15.958Z,-3.32
2023-01-29T06:49:14.252Z,-3.35
2023-01-29T06:52:58.662Z,-3.37
2023-01-29T06:56:41.730Z,-3.36
2023-01-29T07:00:25.003Z,-3.30
2023-01-29T07:04:11.666Z,-3.23
2023-01-29T07:07:58.050Z,-3.21
2023-01-29T07:11:40.361Z,-3.19
2023-01-29T07:15:04.832Z,-3.19
2023-01-29T07:18:42.020Z,-3.26
2023-01-29T07:22:38.471Z,-3.28
2023-01-29T07:26:03.709Z,-3.29
2023-01-29T07:29:41.205Z,-3.25
2023-01-29T07:33:36.466Z,-3.17
2023-01-29T07:37:01.142Z,-3.10
2023-01-29T07:40:38.944Z,-3.06
2023-01-29T07:44:16.637Z,-3.06
2023-01-29T07:48:14.823Z,-3.06
2023-01-29T07:51:57.951Z,-3.02
2023-01-29T07:55:43.635Z,-2.99
2023-01-29T07:59:07.437Z,-2.94
2023-01-29T08:03:06.161Z,-2.90
2023-01-29T08:06:30.552Z,-2.87
2023-01-29T08:10:28.806Z,-2.85
2023-01-29T08:13:54.650Z,-2.82
2023-01-29T08:17:58.022Z,-2.80
2023-01-29T08:21:22.966Z,-2.74
2023-01-29T08:25:08.578Z,-2.73
2023-01-29T08:28:56.973Z,-2.68
2023-01-29T08:32:21.104Z,-2.70
2023-01-29T08:36:19.397Z,-2.68
2023-01-29T08:40:03.412Z,-2.66
2023-01-29T08:43:31.114Z,-2.60
2023-01-29T08:47:24.291Z,-2.57
2023-01-29T08:50:53.215Z,-2.53
2023-01-29T08:54:45.122Z,-2.53
2023-01-29T08:58:28.244Z,-2.59
2023-01-29T09:01:53.898Z,-2.59
2023-01-29T09:05:50.961Z,-2.59
2023-01-29T09:09:38.084Z,-2.58
2023-01-29T09:13:02.627Z,-2.55
2023-01-29T09:16:59.057Z,-2.53
2023-01-29T09:20:23.180Z,-2.46
2023-01-29T09:24:19.691Z,-2.42
2023-01-29T09:27:43.928Z,-2.36
2023-01-29T09:31:40.435Z,-2.35
2023-01-29T09:35:23.920Z,-2.34
2023-01-29T09:39:09.863Z,-2.34
2023-01-29T09:42:36.278Z,-2.34
2023-01-29T09:46:38.123Z,-2.36
2023-01-29T09:50:26.140Z,-2.36
2023-01-29T09:54:17.742Z,-2.31
2023-01-29T09:58:35.393Z,-2.16
2023-01-29T10:02:06.342Z,-2.15
2023-01-29T10:06:12.241Z,-2.06
2023-01-29T10:09:49.271Z,-2.04
2023-01-29T10:13:48.200Z,-2.05
2023-01-29T10:18:11.569Z,-2.13
2023-01-29T10:22:09.463Z,-2.12
2023-01-29T10:25:40.110Z,-2.04
2023-01-29T10:29:33.399Z,-1.94
2023-01-29T10:33:24.162Z,-1.80
2023-01-29T10:36:49.912Z,-1.73
2023-01-29T10:41:07.588Z,-1.68
2023-01-29T10:44:40.520Z,-1.65
2023-01-29T10:48:43.992Z,-1.61
2023-01-29T10:52:51.142Z,-1.56
2023-01-29T10:56:35.001Z,-1.49
2023-01-29T11:00:24.629Z,-1.39
2023-01-29T11:04:12.249Z,-1.34
2023-01-29T11:08:04.597Z,-1.25
2023-01-29T11:11:41.696Z,-1.24
2023-01-29T11:15:33.641Z,-1.20
2023-01-29T11:19:01.266Z,-1.23
2023-01-29T11:22:58.804Z,-1.15
2023-01-29T11:26:23.944Z,-0.95
2023-01-29T11:30:00.676Z,-0.78
2023-01-29T11:33:37.986Z,-0.72
2023-01-29T11:37:17.142Z,-0.73
2023-01-29T11:41:21.674Z,-0.68
2023-01-29T11:44:46.034Z,-0.74
2023-01-29T11:48:54.819Z,-0.79
2023-01-29T11:52:42.880Z,-0.79
2023-01-29T11:56:42.697Z,-0.77
2023-01-29T12:00:38.443Z,-0.74
2023-01-29T12:04:24.148Z,-0.64
2023-01-29T12:07:54.496Z,-0.49
2023-01-29T12:11:44.825Z,-0.48
2023-01-29T12:15:17.056Z,-0.53
2023-01-29T12:18:54.442Z,-0.59
2023-01-29T12:23:05.162Z,-0.62
2023-01-29T12:26:49.500Z,-0.67
2023-01-29T12:30:27.419Z,-0.69
2023-01-29T12:34:33.845Z,-0.70
2023-01-29T12:38:24.460Z,-0.67
2023-01-29T12:42:13.265Z,-0.72
2023-01-29T12:46:02.160Z,-0.74
2023-01-29T12:49:35.667Z,-0.72
2023-01-29T12:53:29.133Z,-0.77
2023-01-29T12:57:31.678Z,-0.81
2023-01-29T13:01:20.420Z,-0.82
2023-01-29T13:05:23.110Z,-0.73
2023-01-29T13:08:58.124Z,-0.66
2023-01-29T13:12:26.263Z,-0.58
2023-01-29T13:16:09.233Z,-0.57
2023-01-29T13:20:31.344Z,-0.62
2023-01-29T13:24:04.791Z,-0.71
2023-01-29T13:27:53.440Z,-0.72
2023-01-29T13:31:40.521Z,-0.74
2023-01-29T13:35:24.465Z,-0.76
2023-01-29T13:39:00.374Z,-0.83
2023-01-29T13:42:48.165Z,-0.83
2023-01-29T13:46:15.097Z,-0.81
2023-01-29T13:49:57.508Z,-0.78
2023-01-29T13:53:32.599Z,-0.71
2023-01-29T13:57:05.221Z,-0.72
2023-01-29T14:00:42.807Z,-0.74
2023-01-29T14:04:39.377Z,-0.80
2023-01-29T14:08:09.605Z,-0.84
2023-01-29T14:11:48.341Z,-0.94
2023-01-29T14:15:25.513Z,-0.98
2023-01-29T14:19:06.858Z,-1.05
2023-01-29T14:22:57.195Z,-1.12
2023-01-29T14:26:56.766Z,-1.14
2023-01-29T14:30:24.164Z,-1.16
2023-01-29T14:34:28.367Z,-1.17
2023-01-29T14:37:58.889Z,-1.19
2023-01-29T14:41:33.765Z,-1.21
2023-01-29T14:45:31.475Z,-1.22
2023-01-29T14:49:53.657Z,-1.24
2023-01-29T14:54:16.529Z,-1.25
2023-01-29T14:57:43.879Z,-1.28
2023-01-29T15:01:47.578Z,-1.31
2023-01-29T15:05:18.963Z,-1.37
2023-01-29T15:09:35.884Z,-1.42
2023-01-29T15:13:27.492Z,-1.39
2023-01-29T15:17:27.452Z,-1.34
2023-01-29T15:21:04.726Z,-1.37
2023-01-29T15:25:14.701Z,-1.41
2023-01-29T15:28:43.505Z,-1.43
2023-01-29T15:32:28.569Z,-1.52
2023-01-29T15:36:10.059Z,-1.54
2023-01-29T15:39:54.452Z,-1.53
2023-01-29T15:43:31.615Z,-1.57
2023-01-29T15:47:15.990Z,-1.62
2023-01-29T15:50:47.134Z,-1.62
2023-01-29T15:54:19.313Z,-1.65
2023-01-29T15:58:17.979Z,-1.65
2023-01-29T16:01:42.875Z,-1.61
2023-01-29T16:05:38.429Z,-1.62
2023-01-29T16:09:04.956Z,-1.63
2023-01-29T16:12:40.564Z,-1.67
2023-01-29T16:16:25.125Z,-1.73
2023-01-29T16:20:00.579Z,-1.77
2023-01-29T16:23:57.564Z,-1.77
2023-01-29T16:27:24.592Z,-1.81
2023-01-29T16:31:03.840Z,-1.83
2023-01-29T16:34:43.258Z,-1.87
2023-01-29T16:38:35.425Z,-1.87
2023-01-29T16:42:19.415Z,-1.81
2023-01-29T16:46:03.418Z,-1.77
2023-01-29T16:49:53.525Z,-1.73
2023-01-29T16:53:23.142Z,-1.70
2023-01-29T16:57:00.413Z,-1.72
2023-01-29T17:00:33.380Z,-1.73
2023-01-29T17:04:14.729Z,-1.74
2023-01-29T17:07:49.224Z,-1.75
2023-01-29T17:11:38.296Z,-1.81
2023-01-29T17:15:43.535Z,-1.86
2023-01-29T17:19:18.537Z,-1.87
2023-01-29T17:23:05.705Z,-1.82
2023-01-29T17:26:31.433Z,-1.77
2023-01-29T17:30:15.406Z,-1.75
2023-01-29T17:34:10.508Z,-1.75
2023-01-29T17:37:36.257Z,-1.79
2023-01-29T17:41:34.396Z,-1.78
2023-01-29T17:45:00.655Z,-1.83
2023-01-29T17:48:36.150Z,-1.84
2023-01-29T17:52:39.462Z,-1.83
2023-01-29T17:56:06.586Z,-1.77
2023-01-29T17:59:41.318Z,-1.70
2023-01-29T18:03:19.913Z,-1.70
2023-01-29T18:06:58.103Z,-1.73
2023-01-29T18:10:37.947Z,-1.80
2023-01-29T18:14:31.590Z,-1.83
2023-01-29T18:17:55.914Z,-1.86
2023-01-29T18:21:34.620Z,-1.92
2023-01-29T18:25:11.197Z,-1.96
2023-01-29T18:28:50.045Z,-1.97
2023-01-29T18:32:47.224Z,-1.93
2023-01-29T18:36:11.660Z,-1.93
2023-01-29T18:39:48.782Z,-1.96
2023-01-29T18:43:27.223Z,-1.97
2023-01-29T18:47:23.987Z,-1.96
2023-01-29T18:50:58.550Z,-1.99
2023-01-29T18:54:33.345Z,-2.03
2023-01-29T18:58:37.794Z,-2.05
2023-01-29T19:02:21.275Z,-2.00
2023-01-29T19:06:08.412Z,-1.96
2023-01-29T19:09:52.135Z,-1.93
2023-01-29T19:13:37.386Z,-1.92
2023-01-29T19:17:01.734Z,-1.98
2023-01-29T19:20:42.973Z,-2.06
2023-01-29T19:24:17.324Z,-2.15
2023-01-29T19:27:54.700Z,-2.17
2023-01-29T19:31:32.409Z,-2.15
2023-01-29T19:35:09.822Z,-2.15
2023-01-29T19:38:49.154Z,-2.17
2023-01-29T19:42:25.655Z,-2.27
2023-01-29T19:46:02.962Z,-2.31
2023-01-29T19:49:59.615Z,-2.30
2023-01-29T19:53:45.263Z,-2.26
2023-01-29T19:57:12.835Z,-2.20
2023-01-29T20:01:14.320Z,-2.17
2023-01-29T20:05:00.479Z,-2.16
2023-01-29T20:08:27.433Z,-2.22
2023-01-29T20:12:02.548Z,-2.25
2023-01-29T20:15:46.393Z,-2.29
2023-01-29T20:19:40.784Z,-2.31
2023-01-29T20:23:37.088Z,-2.25
2023-01-29T20:27:21.560Z,-2.21
2023-01-29T20:30:47.121Z,-2.20
2023-01-29T20:34:24.163Z,-2.18
2023-01-29T20:38:03.033Z,-2.20
2023-01-29T20:41:59.361Z,-2.25
2023-01-29T20:45:27.095Z,-2.27
2023-01-29T20:49:21.388Z,-2.24
2023-01-29T20:53:04.839Z,-2.24
2023-01-29T20:56:37.412Z,-2.22
2023-01-29T21:00:08.641Z,-2.23
2023-01-29T21:03:49.078Z,-2.28
2023-01-29T21:07:42.126Z,-2.32
2023-01-29T21:11:07.447Z,-2.31
2023-01-29T21:14:43.679Z,-2.27
2023-01-29T21:18:22.278Z,-2.28
2023-01-29T21:21:59.837Z,-2.29
2023-01-29T21:26:08.206Z,-2.28
2023-01-29T21:29:51.713Z,-2.28
2023-01-29T21:33:15.605Z,-2.32
2023-01-29T21:37:12.475Z,-2.25
2023-01-29T21:40:38.651Z,-2.20
2023-01-29T21:44:16.535Z,-2.16
2023-01-29T21:47:54.465Z,-2.16
2023-01-29T21:51:50.657Z,-2.19
2023-01-29T21:55:16.345Z,-2.27
2023-01-29T21:58:55.729Z,-2.29
2023-01-29T22:02:34.314Z,-2.28
2023-01-29T22:06:09.443Z,-2.25
2023-01-29T22:09:45.514Z,-2.22
2023-01-29T22:13:23.350Z,-2.21
2023-01-29T22:17:00.888Z,-2.25
2023-01-29T22:20:38.950Z,-2.27
2023-01-29T22:24:35.173Z,-2.24
2023-01-29T22:27:59.479Z,-2.20
2023-01-29T22:31:55.847Z,-2.15
2023-01-29T22:35:20.179Z,-2.11
2023-01-29T22:38:57.539Z,-2.14
2023-01-29T22:42:35.468Z,-2.17
2023-01-29T22:46:13.198Z,-2.21
2023-01-29T22:49:52.440Z,-2.22
2023-01-29T22:53:28.485Z,-2.19
2023-01-29T22:57:10.210Z,-2.20
2023-01-29T23:01:20.177Z,-2.17
2023-01-29T23:04:45.065Z,-2.13
2023-01-29T23:08:21.775Z,-2.13
2023-01-29T23:11:59.498Z,-2.21
2023-01-29T23:15:36.963Z,-2.26
2023-01-29T23:19:14.823Z,-2.27
2023-01-29T23:23:11.167Z,-2.21
2023-01-29T23:26:53.739Z,-2.19
2023-01-29T23:30:18.655Z,-2.18
2023-01-29T23:34:15.218Z,-2.22
2023-01-29T23:37:39.042Z,-2.25
2023-01-29T23:41:35.679Z,-2.34
2023-01-29T23:44:59.681Z,-2.37
2023-01-29T23:48:37.550Z,-2.38
2023-01-29T23:52:34.303Z,-2.38
2023-01-29T23:56:17.491Z,-2.35
2023-01-29T23:59:44.086Z,-2.33
